sensor_id;sensor_type;location;lat;lon;timestamp;P1;durP1;ratioP1;P2;durP2;ratioP2
11488;SDS011;5801;50.804;12.638;2023-06-05T00:01:59;2.40;;;1.40;;
11488;SDS011;5801;50.804;12.638;2023-06-05T00:04:25;1.90;;;1.48;;
11488;SDS011;5801;50.804;12.638;2023-06-05T00:06:52;2.08;;;1.77;;
11488;SDS011;5801;50.804;12.638;2023-06-05T00:09:18;3.42;;;1.48;;
11488;SDS011;5801;50.804;12.638;2023-06-05T00:11:44;3.40;;;1.73;;
11488;SDS011;5801;50.804;12.638;2023-06-05T00:14:10;1.70;;;1.60;;
11488;SDS011;5801;50.804;12.638;2023-06-05T00:16:36;2.58;;;1.77;;
11488;SDS011;5801;50.804;12.638;2023-06-05T00:19:02;1.50;;;1.40;;
11488;SDS011;5801;50.804;12.638;2023-06-05T00:21:29;2.22;;;1.50;;
11488;SDS011;5801;50.804;12.638;2023-06-05T00:23:55;4.28;;;1.60;;
11488;SDS011;5801;50.804;12.638;2023-06-05T00:26:21;8.10;;;1.60;;
11488;SDS011;5801;50.804;12.638;2023-06-05T00:28:47;2.15;;;1.88;;
11488;SDS011;5801;50.804;12.638;2023-06-05T00:31:13;5.80;;;1.52;;
11488;SDS011;5801;50.804;12.638;2023-06-05T00:33:39;1.40;;;1.30;;
11488;SDS011;5801;50.804;12.638;2023-06-05T00:36:05;2.28;;;1.33;;
11488;SDS011;5801;50.804;12.638;2023-06-05T00:38:32;2.53;;;1.70;;
11488;SDS011;5801;50.804;12.638;2023-06-05T00:40:58;2.15;;;1.70;;
11488;SDS011;5801;50.804;12.638;2023-06-05T00:43:24;1.75;;;1.52;;
11488;SDS011;5801;50.804;12.638;2023-06-05T00:45:50;2.58;;;1.52;;
11488;SDS011;5801;50.804;12.638;2023-06-05T00:48:18;3.38;;;1.50;;
11488;SDS011;5801;50.804;12.638;2023-06-05T00:50:44;2.42;;;1.55;;
11488;SDS011;5801;50.804;12.638;2023-06-05T00:53:10;2.70;;;2.00;;
11488;SDS011;5801;50.804;12.638;2023-06-05T00:55:36;1.92;;;1.60;;
11488;SDS011;5801;50.804;12.638;2023-06-05T00:58:02;1.73;;;1.48;;
11488;SDS011;5801;50.804;12.638;2023-06-05T01:00:29;4.32;;;1.33;;
11488;SDS011;5801;50.804;12.638;2023-06-05T01:02:56;4.38;;;1.95;;
11488;SDS011;5801;50.804;12.638;2023-06-05T01:05:23;2.45;;;1.70;;
11488;SDS011;5801;50.804;12.638;2023-06-05T01:07:51;2.10;;;1.55;;
11488;SDS011;5801;50.804;12.638;2023-06-05T01:10:18;2.70;;;1.58;;
11488;SDS011;5801;50.804;12.638;2023-06-05T01:15:17;3.10;;;1.45;;
11488;SDS011;5801;50.804;12.638;2023-06-05T01:17:43;1.42;;;1.33;;
11488;SDS011;5801;50.804;12.638;2023-06-05T01:20:12;1.95;;;1.65;;
11488;SDS011;5801;50.804;12.638;2023-06-05T01:22:38;1.98;;;1.60;;
11488;SDS011;5801;50.804;12.638;2023-06-05T01:25:07;5.07;;;1.60;;
11488;SDS011;5801;50.804;12.638;2023-06-05T01:27:48;2.20;;;1.40;;
11488;SDS011;5801;50.804;12.638;2023-06-05T01:30:27;3.30;;;1.60;;
11488;SDS011;5801;50.804;12.638;2023-06-05T01:32:56;2.60;;;1.50;;
11488;SDS011;5801;50.804;12.638;2023-06-05T01:35:27;1.63;;;0.98;;
11488;SDS011;5801;50.804;12.638;2023-06-05T01:37:58;2.35;;;1.30;;
11488;SDS011;5801;50.804;12.638;2023-06-05T01:40:24;2.33;;;1.27;;
11488;SDS011;5801;50.804;12.638;2023-06-05T01:42:51;0.80;;;0.80;;
11488;SDS011;5801;50.804;12.638;2023-06-05T01:45:18;1.52;;;1.13;;
11488;SDS011;5801;50.804;12.638;2023-06-05T01:47:44;1.67;;;1.17;;
11488;SDS011;5801;50.804;12.638;2023-06-05T01:50:14;1.88;;;1.70;;
11488;SDS011;5801;50.804;12.638;2023-06-05T01:52:41;1.30;;;1.10;;
11488;SDS011;5801;50.804;12.638;2023-06-05T01:55:08;1.20;;;0.85;;
11488;SDS011;5801;50.804;12.638;2023-06-05T01:57:39;1.85;;;1.35;;
11488;SDS011;5801;50.804;12.638;2023-06-05T02:00:06;2.25;;;1.10;;
11488;SDS011;5801;50.804;12.638;2023-06-05T02:02:35;1.27;;;1.08;;
11488;SDS011;5801;50.804;12.638;2023-06-05T02:05:01;2.35;;;1.70;;
11488;SDS011;5801;50.804;12.638;2023-06-05T02:07:26;1.73;;;1.20;;
11488;SDS011;5801;50.804;12.638;2023-06-05T02:09:53;1.95;;;1.25;;
11488;SDS011;5801;50.804;12.638;2023-06-05T02:12:19;2.28;;;1.35;;
11488;SDS011;5801;50.804;12.638;2023-06-05T02:14:51;3.38;;;1.25;;
11488;SDS011;5801;50.804;12.638;2023-06-05T02:17:17;1.08;;;0.98;;
11488;SDS011;5801;50.804;12.638;2023-06-05T02:19:42;1.30;;;1.10;;
11488;SDS011;5801;50.804;12.638;2023-06-05T02:22:08;2.05;;;1.70;;
11488;SDS011;5801;50.804;12.638;2023-06-05T02:24:34;1.92;;;1.30;;
11488;SDS011;5801;50.804;12.638;2023-06-05T02:27:01;5.05;;;2.05;;
11488;SDS011;5801;50.804;12.638;2023-06-05T02:29:27;1.95;;;1.75;;
11488;SDS011;5801;50.804;12.638;2023-06-05T02:31:53;5.47;;;2.05;;
11488;SDS011;5801;50.804;12.638;2023-06-05T02:34:19;2.38;;;1.73;;
11488;SDS011;5801;50.804;12.638;2023-06-05T02:36:44;3.53;;;1.98;;
11488;SDS011;5801;50.804;12.638;2023-06-05T02:39:11;1.50;;;1.30;;
11488;SDS011;5801;50.804;12.638;2023-06-05T02:41:37;1.75;;;1.45;;
11488;SDS011;5801;50.804;12.638;2023-06-05T02:44:03;1.85;;;1.40;;
11488;SDS011;5801;50.804;12.638;2023-06-05T02:46:29;3.55;;;1.73;;
11488;SDS011;5801;50.804;12.638;2023-06-05T02:48:55;1.35;;;1.25;;
11488;SDS011;5801;50.804;12.638;2023-06-05T02:51:21;2.10;;;1.60;;
11488;SDS011;5801;50.804;12.638;2023-06-05T02:53:47;3.35;;;2.20;;
11488;SDS011;5801;50.804;12.638;2023-06-05T02:56:13;3.08;;;2.00;;
11488;SDS011;5801;50.804;12.638;2023-06-05T02:58:39;2.60;;;1.80;;
11488;SDS011;5801;50.804;12.638;2023-06-05T03:01:08;2.65;;;1.63;;
11488;SDS011;5801;50.804;12.638;2023-06-05T03:03:35;1.95;;;1.50;;
11488;SDS011;5801;50.804;12.638;2023-06-05T03:06:01;1.52;;;1.33;;
11488;SDS011;5801;50.804;12.638;2023-06-05T03:08:31;2.30;;;1.60;;
11488;SDS011;5801;50.804;12.638;2023-06-05T03:10:58;1.73;;;1.35;;
11488;SDS011;5801;50.804;12.638;2023-06-05T03:13:24;1.92;;;1.73;;
11488;SDS011;5801;50.804;12.638;2023-06-05T03:15:50;2.47;;;1.80;;
11488;SDS011;5801;50.804;12.638;2023-06-05T03:18:18;1.60;;;1.50;;
11488;SDS011;5801;50.804;12.638;2023-06-05T03:20:44;3.55;;;1.50;;
11488;SDS011;5801;50.804;12.638;2023-06-05T03:23:10;4.75;;;2.00;;
11488;SDS011;5801;50.804;12.638;2023-06-05T03:25:36;1.38;;;1.25;;
11488;SDS011;5801;50.804;12.638;2023-06-05T03:28:02;6.55;;;1.42;;
11488;SDS011;5801;50.804;12.638;2023-06-05T03:30:28;2.63;;;1.58;;
11488;SDS011;5801;50.804;12.638;2023-06-05T03:32:54;1.33;;;1.20;;
11488;SDS011;5801;50.804;12.638;2023-06-05T03:35:20;1.23;;;1.08;;
11488;SDS011;5801;50.804;12.638;2023-06-05T03:37:46;1.58;;;1.23;;
11488;SDS011;5801;50.804;12.638;2023-06-05T03:40:12;1.77;;;1.60;;
11488;SDS011;5801;50.804;12.638;2023-06-05T03:42:37;2.15;;;1.52;;
11488;SDS011;5801;50.804;12.638;2023-06-05T03:45:04;4.78;;;1.73;;
11488;SDS011;5801;50.804;12.638;2023-06-05T03:47:30;2.38;;;1.27;;
11488;SDS011;5801;50.804;12.638;2023-06-05T03:49:55;1.70;;;1.50;;
11488;SDS011;5801;50.804;12.638;2023-06-05T03:52:21;3.00;;;1.45;;
11488;SDS011;5801;50.804;12.638;2023-06-05T03:54:48;3.47;;;1.70;;
11488;SDS011;5801;50.804;12.638;2023-06-05T03:57:18;1.45;;;1.27;;
11488;SDS011;5801;50.804;12.638;2023-06-05T03:59:45;2.15;;;1.42;;
11488;SDS011;5801;50.804;12.638;2023-06-05T04:02:12;1.73;;;1.42;;
11488;SDS011;5801;50.804;12.638;2023-06-05T04:04:37;2.90;;;1.58;;
11488;SDS011;5801;50.804;12.638;2023-06-05T04:07:04;3.25;;;1.65;;
11488;SDS011;5801;50.804;12.638;2023-06-05T04:09:30;1.65;;;1.20;;
11488;SDS011;5801;50.804;12.638;2023-06-05T04:11:56;2.60;;;1.80;;
11488;SDS011;5801;50.804;12.638;2023-06-05T04:14:22;2.30;;;1.63;;
11488;SDS011;5801;50.804;12.638;2023-06-05T04:16:48;3.88;;;2.13;;
11488;SDS011;5801;50.804;12.638;2023-06-05T04:19:14;2.65;;;1.45;;
11488;SDS011;5801;50.804;12.638;2023-06-05T04:21:40;3.63;;;2.03;;
11488;SDS011;5801;50.804;12.638;2023-06-05T04:24:09;4.25;;;1.83;;
11488;SDS011;5801;50.804;12.638;2023-06-05T04:26:36;2.03;;;1.35;;
11488;SDS011;5801;50.804;12.638;2023-06-05T04:29:02;2.17;;;1.63;;
11488;SDS011;5801;50.804;12.638;2023-06-05T04:31:38;3.22;;;1.85;;
11488;SDS011;5801;50.804;12.638;2023-06-05T04:34:05;2.35;;;1.98;;
11488;SDS011;5801;50.804;12.638;2023-06-05T04:36:32;4.25;;;1.63;;
11488;SDS011;5801;50.804;12.638;2023-06-05T04:38:59;2.83;;;1.63;;
11488;SDS011;5801;50.804;12.638;2023-06-05T04:41:28;2.45;;;1.42;;
11488;SDS011;5801;50.804;12.638;2023-06-05T04:43:54;1.63;;;1.23;;
11488;SDS011;5801;50.804;12.638;2023-06-05T04:46:22;3.55;;;2.15;;
11488;SDS011;5801;50.804;12.638;2023-06-05T04:48:49;2.13;;;1.23;;
11488;SDS011;5801;50.804;12.638;2023-06-05T04:51:20;1.45;;;1.35;;
11488;SDS011;5801;50.804;12.638;2023-06-05T04:53:45;3.22;;;1.88;;
11488;SDS011;5801;50.804;12.638;2023-06-05T04:56:15;6.15;;;1.73;;
11488;SDS011;5801;50.804;12.638;2023-06-05T04:58:41;2.05;;;1.70;;
11488;SDS011;5801;50.804;12.638;2023-06-05T05:01:07;2.17;;;1.67;;
11488;SDS011;5801;50.804;12.638;2023-06-05T05:03:33;10.70;;;1.80;;
11488;SDS011;5801;50.804;12.638;2023-06-05T05:06:00;3.00;;;1.77;;
11488;SDS011;5801;50.804;12.638;2023-06-05T05:08:26;3.78;;;1.70;;
11488;SDS011;5801;50.804;12.638;2023-06-05T05:10:52;4.57;;;1.92;;
11488;SDS011;5801;50.804;12.638;2023-06-05T05:13:18;4.45;;;1.70;;
11488;SDS011;5801;50.804;12.638;2023-06-05T05:15:44;2.17;;;1.83;;
11488;SDS011;5801;50.804;12.638;2023-06-05T05:18:11;4.22;;;1.80;;
11488;SDS011;5801;50.804;12.638;2023-06-05T05:20:37;2.85;;;1.73;;
11488;SDS011;5801;50.804;12.638;2023-06-05T05:23:04;2.03;;;1.63;;
11488;SDS011;5801;50.804;12.638;2023-06-05T05:25:32;2.30;;;1.58;;
11488;SDS011;5801;50.804;12.638;2023-06-05T05:27:58;2.53;;;1.65;;
11488;SDS011;5801;50.804;12.638;2023-06-05T05:30:25;2.58;;;1.83;;
11488;SDS011;5801;50.804;12.638;2023-06-05T05:32:50;3.58;;;1.67;;
11488;SDS011;5801;50.804;12.638;2023-06-05T05:35:17;2.65;;;1.90;;
11488;SDS011;5801;50.804;12.638;2023-06-05T05:37:43;2.25;;;2.00;;
11488;SDS011;5801;50.804;12.638;2023-06-05T05:40:09;2.58;;;1.90;;
11488;SDS011;5801;50.804;12.638;2023-06-05T05:42:35;2.60;;;1.55;;
11488;SDS011;5801;50.804;12.638;2023-06-05T05:45:01;3.63;;;1.58;;
11488;SDS011;5801;50.804;12.638;2023-06-05T05:47:27;6.85;;;1.75;;
11488;SDS011;5801;50.804;12.638;2023-06-05T05:49:53;5.70;;;2.33;;
11488;SDS011;5801;50.804;12.638;2023-06-05T05:52:19;4.30;;;2.03;;
11488;SDS011;5801;50.804;12.638;2023-06-05T05:54:47;2.78;;;1.52;;
11488;SDS011;5801;50.804;12.638;2023-06-05T05:57:13;3.35;;;2.30;;
11488;SDS011;5801;50.804;12.638;2023-06-05T05:59:39;4.10;;;1.75;;
11488;SDS011;5801;50.804;12.638;2023-06-05T06:02:07;2.40;;;1.67;;
11488;SDS011;5801;50.804;12.638;2023-06-05T06:04:34;3.75;;;2.25;;
11488;SDS011;5801;50.804;12.638;2023-06-05T06:07:00;35.78;;;17.70;;
11488;SDS011;5801;50.804;12.638;2023-06-05T06:09:27;35.47;;;16.60;;
11488;SDS011;5801;50.804;12.638;2023-06-05T06:11:53;50.97;;;22.85;;
11488;SDS011;5801;50.804;12.638;2023-06-05T06:14:21;79.05;;;32.88;;
11488;SDS011;5801;50.804;12.638;2023-06-05T06:16:47;59.92;;;27.33;;
11488;SDS011;5801;50.804;12.638;2023-06-05T06:19:14;34.33;;;15.70;;
11488;SDS011;5801;50.804;12.638;2023-06-05T06:21:41;39.78;;;17.92;;
11488;SDS011;5801;50.804;12.638;2023-06-05T06:24:07;40.70;;;20.40;;
11488;SDS011;5801;50.804;12.638;2023-06-05T06:26:33;13.88;;;7.18;;
11488;SDS011;5801;50.804;12.638;2023-06-05T06:29:02;6.63;;;3.92;;
11488;SDS011;5801;50.804;12.638;2023-06-05T06:31:28;20.38;;;9.63;;
11488;SDS011;5801;50.804;12.638;2023-06-05T06:33:54;28.90;;;12.52;;
11488;SDS011;5801;50.804;12.638;2023-06-05T06:36:20;26.02;;;12.85;;
11488;SDS011;5801;50.804;12.638;2023-06-05T06:38:47;12.98;;;7.05;;
11488;SDS011;5801;50.804;12.638;2023-06-05T06:41:13;7.53;;;4.28;;
11488;SDS011;5801;50.804;12.638;2023-06-05T06:43:39;6.28;;;3.33;;
11488;SDS011;5801;50.804;12.638;2023-06-05T06:46:04;11.10;;;4.03;;
11488;SDS011;5801;50.804;12.638;2023-06-05T06:48:31;3.92;;;2.50;;
11488;SDS011;5801;50.804;12.638;2023-06-05T06:50:57;5.55;;;2.17;;
11488;SDS011;5801;50.804;12.638;2023-06-05T06:53:23;3.08;;;1.60;;
11488;SDS011;5801;50.804;12.638;2023-06-05T06:55:49;5.15;;;2.00;;
11488;SDS011;5801;50.804;12.638;2023-06-05T06:58:15;2.15;;;1.73;;
11488;SDS011;5801;50.804;12.638;2023-06-05T07:00:41;4.97;;;1.70;;
11488;SDS011;5801;50.804;12.638;2023-06-05T07:03:07;5.15;;;1.67;;
11488;SDS011;5801;50.804;12.638;2023-06-05T07:05:33;2.40;;;2.15;;
11488;SDS011;5801;50.804;12.638;2023-06-05T07:07:59;4.45;;;2.05;;
11488;SDS011;5801;50.804;12.638;2023-06-05T07:10:26;2.30;;;2.00;;
11488;SDS011;5801;50.804;12.638;2023-06-05T07:12:52;3.97;;;1.83;;
11488;SDS011;5801;50.804;12.638;2023-06-05T07:15:19;2.20;;;1.67;;
11488;SDS011;5801;50.804;12.638;2023-06-05T07:17:45;3.88;;;1.95;;
11488;SDS011;5801;50.804;12.638;2023-06-05T07:20:11;2.80;;;1.75;;
11488;SDS011;5801;50.804;12.638;2023-06-05T07:22:41;2.75;;;1.80;;
11488;SDS011;5801;50.804;12.638;2023-06-05T07:25:07;4.03;;;1.95;;
11488;SDS011;5801;50.804;12.638;2023-06-05T07:27:34;5.20;;;1.83;;
11488;SDS011;5801;50.804;12.638;2023-06-05T07:30:00;2.72;;;1.60;;
11488;SDS011;5801;50.804;12.638;2023-06-05T07:32:26;2.05;;;1.42;;
11488;SDS011;5801;50.804;12.638;2023-06-05T07:34:52;3.80;;;1.60;;
11488;SDS011;5801;50.804;12.638;2023-06-05T07:37:18;4.72;;;1.35;;
11488;SDS011;5801;50.804;12.638;2023-06-05T07:39:44;1.80;;;1.20;;
11488;SDS011;5801;50.804;12.638;2023-06-05T07:42:12;2.22;;;1.70;;
11488;SDS011;5801;50.804;12.638;2023-06-05T07:44:38;3.38;;;1.70;;
11488;SDS011;5801;50.804;12.638;2023-06-05T07:47:04;6.32;;;1.98;;
11488;SDS011;5801;50.804;12.638;2023-06-05T07:49:30;8.70;;;1.75;;
11488;SDS011;5801;50.804;12.638;2023-06-05T07:51:59;4.22;;;1.88;;
11488;SDS011;5801;50.804;12.638;2023-06-05T07:54:25;3.30;;;2.03;;
11488;SDS011;5801;50.804;12.638;2023-06-05T07:56:51;4.13;;;1.65;;
11488;SDS011;5801;50.804;12.638;2023-06-05T07:59:17;3.17;;;1.70;;
11488;SDS011;5801;50.804;12.638;2023-06-05T08:01:49;5.30;;;2.00;;
11488;SDS011;5801;50.804;12.638;2023-06-05T08:04:15;4.32;;;2.03;;
11488;SDS011;5801;50.804;12.638;2023-06-05T08:06:42;4.45;;;2.03;;
11488;SDS011;5801;50.804;12.638;2023-06-05T08:09:08;3.53;;;2.40;;
11488;SDS011;5801;50.804;12.638;2023-06-05T08:11:35;6.38;;;1.90;;
11488;SDS011;5801;50.804;12.638;2023-06-05T08:14:02;3.97;;;2.13;;
11488;SDS011;5801;50.804;12.638;2023-06-05T08:16:28;5.65;;;1.65;;
11488;SDS011;5801;50.804;12.638;2023-06-05T08:18:55;9.13;;;2.40;;
11488;SDS011;5801;50.804;12.638;2023-06-05T08:21:22;9.05;;;2.15;;
11488;SDS011;5801;50.804;12.638;2023-06-05T08:23:48;9.93;;;2.28;;
11488;SDS011;5801;50.804;12.638;2023-06-05T08:26:13;3.38;;;1.77;;
11488;SDS011;5801;50.804;12.638;2023-06-05T08:28:40;1.90;;;1.38;;
11488;SDS011;5801;50.804;12.638;2023-06-05T08:31:07;3.80;;;2.35;;
11488;SDS011;5801;50.804;12.638;2023-06-05T08:33:33;7.78;;;1.85;;
11488;SDS011;5801;50.804;12.638;2023-06-05T08:35:59;4.57;;;2.15;;
11488;SDS011;5801;50.804;12.638;2023-06-05T08:38:26;5.18;;;2.00;;
11488;SDS011;5801;50.804;12.638;2023-06-05T08:40:55;2.80;;;2.05;;
11488;SDS011;5801;50.804;12.638;2023-06-05T08:43:23;1.83;;;1.63;;
11488;SDS011;5801;50.804;12.638;2023-06-05T08:45:52;4.50;;;2.15;;
11488;SDS011;5801;50.804;12.638;2023-06-05T08:48:20;4.97;;;1.95;;
11488;SDS011;5801;50.804;12.638;2023-06-05T08:50:47;2.67;;;1.92;;
11488;SDS011;5801;50.804;12.638;2023-06-05T08:53:13;6.90;;;2.15;;
11488;SDS011;5801;50.804;12.638;2023-06-05T08:55:41;8.55;;;1.85;;
11488;SDS011;5801;50.804;12.638;2023-06-05T08:58:07;1.92;;;1.73;;
11488;SDS011;5801;50.804;12.638;2023-06-05T09:00:34;6.80;;;2.08;;
11488;SDS011;5801;50.804;12.638;2023-06-05T09:02:59;2.45;;;2.03;;
11488;SDS011;5801;50.804;12.638;2023-06-05T09:05:26;6.40;;;2.15;;
11488;SDS011;5801;50.804;12.638;2023-06-05T09:07:52;5.60;;;2.00;;
11488;SDS011;5801;50.804;12.638;2023-06-05T09:10:22;2.70;;;2.03;;
11488;SDS011;5801;50.804;12.638;2023-06-05T09:12:58;3.15;;;2.33;;
11488;SDS011;5801;50.804;12.638;2023-06-05T09:18:03;3.70;;;2.25;;
11488;SDS011;5801;50.804;12.638;2023-06-05T09:20:30;3.85;;;2.38;;
11488;SDS011;5801;50.804;12.638;2023-06-05T09:22:59;2.80;;;2.45;;
11488;SDS011;5801;50.804;12.638;2023-06-05T09:25:26;6.63;;;2.17;;
11488;SDS011;5801;50.804;12.638;2023-06-05T09:28:05;9.52;;;2.25;;
11488;SDS011;5801;50.804;12.638;2023-06-05T09:30:32;3.92;;;2.53;;
11488;SDS011;5801;50.804;12.638;2023-06-05T09:33:07;2.60;;;2.05;;
11488;SDS011;5801;50.804;12.638;2023-06-05T09:35:34;4.15;;;2.28;;
11488;SDS011;5801;50.804;12.638;2023-06-05T09:38:03;3.83;;;2.58;;
11488;SDS011;5801;50.804;12.638;2023-06-05T09:40:38;9.07;;;2.50;;
11488;SDS011;5801;50.804;12.638;2023-06-05T09:43:16;4.97;;;2.50;;
11488;SDS011;5801;50.804;12.638;2023-06-05T09:45:47;2.65;;;2.17;;
11488;SDS011;5801;50.804;12.638;2023-06-05T09:48:13;6.13;;;2.63;;
11488;SDS011;5801;50.804;12.638;2023-06-05T09:50:39;5.47;;;2.58;;
11488;SDS011;5801;50.804;12.638;2023-06-05T09:53:06;7.30;;;2.22;;
11488;SDS011;5801;50.804;12.638;2023-06-05T09:55:32;5.72;;;2.88;;
11488;SDS011;5801;50.804;12.638;2023-06-05T09:57:59;3.20;;;2.15;;
11488;SDS011;5801;50.804;12.638;2023-06-05T10:00:25;5.20;;;2.53;;
11488;SDS011;5801;50.804;12.638;2023-06-05T10:02:51;6.20;;;2.65;;
11488;SDS011;5801;50.804;12.638;2023-06-05T10:05:19;4.00;;;2.50;;
11488;SDS011;5801;50.804;12.638;2023-06-05T10:07:45;6.85;;;2.45;;
11488;SDS011;5801;50.804;12.638;2023-06-05T10:10:18;3.40;;;2.55;;
11488;SDS011;5801;50.804;12.638;2023-06-05T10:12:44;5.03;;;2.92;;
11488;SDS011;5801;50.804;12.638;2023-06-05T10:15:11;2.95;;;2.50;;
11488;SDS011;5801;50.804;12.638;2023-06-05T10:17:37;4.90;;;2.40;;
11488;SDS011;5801;50.804;12.638;2023-06-05T10:20:05;6.00;;;2.80;;
11488;SDS011;5801;50.804;12.638;2023-06-05T10:22:32;4.07;;;2.50;;
11488;SDS011;5801;50.804;12.638;2023-06-05T10:25:00;2.88;;;2.25;;
11488;SDS011;5801;50.804;12.638;2023-06-05T10:27:36;3.38;;;2.50;;
11488;SDS011;5801;50.804;12.638;2023-06-05T10:32:36;5.10;;;2.90;;
11488;SDS011;5801;50.804;12.638;2023-06-05T10:35:23;4.72;;;2.45;;
11488;SDS011;5801;50.804;12.638;2023-06-05T10:38:04;3.88;;;2.42;;
11488;SDS011;5801;50.804;12.638;2023-06-05T10:40:34;6.05;;;2.50;;
11488;SDS011;5801;50.804;12.638;2023-06-05T10:45:45;5.80;;;2.63;;
11488;SDS011;5801;50.804;12.638;2023-06-05T10:48:11;3.13;;;2.58;;
11488;SDS011;5801;50.804;12.638;2023-06-05T10:50:37;5.22;;;2.75;;
11488;SDS011;5801;50.804;12.638;2023-06-05T10:53:03;9.13;;;2.83;;
11488;SDS011;5801;50.804;12.638;2023-06-05T10:55:40;4.47;;;2.65;;
11488;SDS011;5801;50.804;12.638;2023-06-05T10:58:08;4.53;;;3.10;;
11488;SDS011;5801;50.804;12.638;2023-06-05T11:00:35;5.45;;;2.80;;
11488;SDS011;5801;50.804;12.638;2023-06-05T11:03:01;7.10;;;2.90;;
11488;SDS011;5801;50.804;12.638;2023-06-05T11:05:27;4.35;;;2.75;;
11488;SDS011;5801;50.804;12.638;2023-06-05T11:11:01;4.82;;;2.67;;
11488;SDS011;5801;50.804;12.638;2023-06-05T11:16:24;3.22;;;2.88;;
11488;SDS011;5801;50.804;12.638;2023-06-05T11:18:50;6.05;;;2.50;;
11488;SDS011;5801;50.804;12.638;2023-06-05T11:21:16;3.75;;;2.85;;
11488;SDS011;5801;50.804;12.638;2023-06-05T11:23:53;5.72;;;2.47;;
11488;SDS011;5801;50.804;12.638;2023-06-05T11:26:38;3.67;;;2.42;;
11488;SDS011;5801;50.804;12.638;2023-06-05T11:29:08;5.32;;;3.03;;
11488;SDS011;5801;50.804;12.638;2023-06-05T11:31:35;9.98;;;2.80;;
11488;SDS011;5801;50.804;12.638;2023-06-05T11:34:01;5.57;;;3.03;;
11488;SDS011;5801;50.804;12.638;2023-06-05T11:36:27;3.25;;;2.50;;
11488;SDS011;5801;50.804;12.638;2023-06-05T11:38:53;3.28;;;2.80;;
11488;SDS011;5801;50.804;12.638;2023-06-05T11:41:23;4.47;;;2.80;;
11488;SDS011;5801;50.804;12.638;2023-06-05T11:43:50;3.45;;;3.15;;
11488;SDS011;5801;50.804;12.638;2023-06-05T11:46:16;4.88;;;3.10;;
11488;SDS011;5801;50.804;12.638;2023-06-05T11:48:42;3.08;;;2.78;;
11488;SDS011;5801;50.804;12.638;2023-06-05T11:51:09;4.03;;;2.97;;
11488;SDS011;5801;50.804;12.638;2023-06-05T11:53:35;4.50;;;2.65;;
11488;SDS011;5801;50.804;12.638;2023-06-05T11:56:02;4.82;;;2.60;;
11488;SDS011;5801;50.804;12.638;2023-06-05T11:58:37;5.28;;;2.53;;
11488;SDS011;5801;50.804;12.638;2023-06-05T12:03:37;5.72;;;2.88;;
11488;SDS011;5801;50.804;12.638;2023-06-05T12:06:04;5.18;;;2.70;;
11488;SDS011;5801;50.804;12.638;2023-06-05T12:08:30;6.82;;;3.20;;
11488;SDS011;5801;50.804;12.638;2023-06-05T12:10:58;5.25;;;3.20;;
11488;SDS011;5801;50.804;12.638;2023-06-05T12:16:08;3.22;;;2.53;;
11488;SDS011;5801;50.804;12.638;2023-06-05T12:18:34;4.53;;;3.05;;
11488;SDS011;5801;50.804;12.638;2023-06-05T12:21:01;4.40;;;2.42;;
11488;SDS011;5801;50.804;12.638;2023-06-05T12:23:30;3.28;;;2.60;;
11488;SDS011;5801;50.804;12.638;2023-06-05T12:25:58;5.50;;;2.90;;
11488;SDS011;5801;50.804;12.638;2023-06-05T12:28:24;5.20;;;3.17;;
11488;SDS011;5801;50.804;12.638;2023-06-05T12:30:52;3.72;;;2.90;;
11488;SDS011;5801;50.804;12.638;2023-06-05T12:33:18;4.25;;;2.70;;
11488;SDS011;5801;50.804;12.638;2023-06-05T12:35:44;3.85;;;3.10;;
11488;SDS011;5801;50.804;12.638;2023-06-05T12:38:10;6.95;;;3.03;;
11488;SDS011;5801;50.804;12.638;2023-06-05T12:40:36;4.65;;;2.83;;
11488;SDS011;5801;50.804;12.638;2023-06-05T12:43:02;7.70;;;3.10;;
11488;SDS011;5801;50.804;12.638;2023-06-05T12:45:28;6.75;;;2.20;;
11488;SDS011;5801;50.804;12.638;2023-06-05T12:47:55;4.38;;;2.83;;
11488;SDS011;5801;50.804;12.638;2023-06-05T12:50:21;3.70;;;3.13;;
11488;SDS011;5801;50.804;12.638;2023-06-05T12:52:47;3.70;;;2.78;;
11488;SDS011;5801;50.804;12.638;2023-06-05T12:55:13;5.78;;;2.88;;
11488;SDS011;5801;50.804;12.638;2023-06-05T12:57:39;4.35;;;2.80;;
11488;SDS011;5801;50.804;12.638;2023-06-05T13:00:06;5.40;;;2.97;;
11488;SDS011;5801;50.804;12.638;2023-06-05T13:02:36;4.43;;;3.28;;
11488;SDS011;5801;50.804;12.638;2023-06-05T13:05:02;5.90;;;3.13;;
11488;SDS011;5801;50.804;12.638;2023-06-05T13:07:29;3.88;;;2.80;;
11488;SDS011;5801;50.804;12.638;2023-06-05T13:09:56;4.47;;;3.08;;
11488;SDS011;5801;50.804;12.638;2023-06-05T13:12:22;3.65;;;2.67;;
11488;SDS011;5801;50.804;12.638;2023-06-05T13:14:48;4.90;;;2.80;;
11488;SDS011;5801;50.804;12.638;2023-06-05T13:17:14;8.38;;;3.00;;
11488;SDS011;5801;50.804;12.638;2023-06-05T13:19:40;3.28;;;2.55;;
11488;SDS011;5801;50.804;12.638;2023-06-05T13:22:06;11.95;;;3.10;;
11488;SDS011;5801;50.804;12.638;2023-06-05T13:24:32;3.30;;;2.80;;
11488;SDS011;5801;50.804;12.638;2023-06-05T13:26:57;5.82;;;3.20;;
11488;SDS011;5801;50.804;12.638;2023-06-05T13:29:23;4.00;;;2.88;;
11488;SDS011;5801;50.804;12.638;2023-06-05T13:31:49;3.47;;;2.60;;
11488;SDS011;5801;50.804;12.638;2023-06-05T13:34:15;6.60;;;2.83;;
11488;SDS011;5801;50.804;12.638;2023-06-05T13:36:42;3.30;;;2.63;;
11488;SDS011;5801;50.804;12.638;2023-06-05T13:39:08;3.40;;;2.65;;
11488;SDS011;5801;50.804;12.638;2023-06-05T13:41:34;4.30;;;2.88;;
11488;SDS011;5801;50.804;12.638;2023-06-05T13:44:00;5.95;;;3.15;;
11488;SDS011;5801;50.804;12.638;2023-06-05T13:46:27;4.60;;;2.72;;
11488;SDS011;5801;50.804;12.638;2023-06-05T13:48:53;4.43;;;2.90;;
11488;SDS011;5801;50.804;12.638;2023-06-05T13:51:19;3.63;;;2.85;;
11488;SDS011;5801;50.804;12.638;2023-06-05T13:53:46;3.83;;;3.00;;
11488;SDS011;5801;50.804;12.638;2023-06-05T13:56:12;3.80;;;2.78;;
11488;SDS011;5801;50.804;12.638;2023-06-05T13:58:38;4.35;;;3.15;;
11488;SDS011;5801;50.804;12.638;2023-06-05T14:01:04;2.90;;;2.60;;
11488;SDS011;5801;50.804;12.638;2023-06-05T14:03:30;3.53;;;2.85;;
11488;SDS011;5801;50.804;12.638;2023-06-05T14:05:56;4.65;;;3.17;;
11488;SDS011;5801;50.804;12.638;2023-06-05T14:08:22;6.15;;;2.58;;
11488;SDS011;5801;50.804;12.638;2023-06-05T14:10:48;8.65;;;3.00;;
11488;SDS011;5801;50.804;12.638;2023-06-05T14:13:14;2.88;;;2.40;;
11488;SDS011;5801;50.804;12.638;2023-06-05T14:15:40;3.92;;;3.00;;
11488;SDS011;5801;50.804;12.638;2023-06-05T14:18:06;4.45;;;3.17;;
11488;SDS011;5801;50.804;12.638;2023-06-05T14:20:33;4.50;;;2.88;;
11488;SDS011;5801;50.804;12.638;2023-06-05T14:23:00;2.92;;;2.42;;
11488;SDS011;5801;50.804;12.638;2023-06-05T14:25:27;2.88;;;2.45;;
11488;SDS011;5801;50.804;12.638;2023-06-05T14:27:56;2.63;;;2.42;;
11488;SDS011;5801;50.804;12.638;2023-06-05T14:30:23;3.70;;;2.72;;
11488;SDS011;5801;50.804;12.638;2023-06-05T14:32:49;5.07;;;3.00;;
11488;SDS011;5801;50.804;12.638;2023-06-05T14:35:15;4.45;;;3.05;;
11488;SDS011;5801;50.804;12.638;2023-06-05T14:37:41;7.13;;;2.75;;
11488;SDS011;5801;50.804;12.638;2023-06-05T14:40:08;5.43;;;2.80;;
11488;SDS011;5801;50.804;12.638;2023-06-05T14:42:34;4.03;;;2.83;;
11488;SDS011;5801;50.804;12.638;2023-06-05T14:45:00;6.05;;;3.13;;
11488;SDS011;5801;50.804;12.638;2023-06-05T14:47:26;4.40;;;2.65;;
11488;SDS011;5801;50.804;12.638;2023-06-05T14:49:52;4.03;;;2.67;;
11488;SDS011;5801;50.804;12.638;2023-06-05T14:52:18;4.60;;;2.83;;
11488;SDS011;5801;50.804;12.638;2023-06-05T14:54:44;7.03;;;2.70;;
11488;SDS011;5801;50.804;12.638;2023-06-05T14:57:10;5.50;;;2.42;;
11488;SDS011;5801;50.804;12.638;2023-06-05T14:59:36;4.82;;;3.00;;
11488;SDS011;5801;50.804;12.638;2023-06-05T15:02:03;3.72;;;2.67;;
11488;SDS011;5801;50.804;12.638;2023-06-05T15:04:29;8.13;;;3.00;;
11488;SDS011;5801;50.804;12.638;2023-06-05T15:06:55;4.78;;;3.10;;